Golspie, United Kingdom
Current Conditions -  °F | °C
As of 2:50 PM on Saturday 25 Oct 2014 (Local Time) from EGQK Reporting Station
Few Clouds Few Clouds  
Wind Chill: 55°   Ceiling: Unl
Heat Index: 55°   Visibility: 6mi
Dew Point: 41°   Wind: 33mph
Humidity: 58%   Direction: 220°SW
Pressure: 29.44"   Gusts: 51mph
Location:  57.97°N, 3.98°W
Report Text: EGQK 251350Z AUTO 22029G44KT 9999 FEW041/// 13/05 Q0997
Loading
Personal Weather Stations






























Interactive Weather Map
Tropical Storm Tracking
New forecast layout! Learn more

10-Day Weather Forecast

Advertisements
Track Severe Weather on mobile